sensor_id;sensor_type;location;lat;lon;timestamp;P1;durP1;ratioP1;P2;durP2;ratioP2
52494;SDS011;38405;53.212;5.660;2023-06-14T00:00:18;4.03;;;2.00;;
52494;SDS011;38405;53.212;5.660;2023-06-14T00:02:44;5.47;;;2.05;;
52494;SDS011;38405;53.212;5.660;2023-06-14T00:05:10;3.53;;;2.30;;
52494;SDS011;38405;53.212;5.660;2023-06-14T00:07:38;5.90;;;2.38;;
52494;SDS011;38405;53.212;5.660;2023-06-14T00:10:07;7.90;;;2.33;;
52494;SDS011;38405;53.212;5.660;2023-06-14T00:12:34;4.88;;;2.38;;
52494;SDS011;38405;53.212;5.660;2023-06-14T00:15:04;4.47;;;1.90;;
52494;SDS011;38405;53.212;5.660;2023-06-14T00:17:30;6.70;;;2.30;;
52494;SDS011;38405;53.212;5.660;2023-06-14T00:19:57;5.63;;;2.35;;
52494;SDS011;38405;53.212;5.660;2023-06-14T00:22:26;3.92;;;1.92;;
52494;SDS011;38405;53.212;5.660;2023-06-14T00:24:56;5.47;;;2.28;;
52494;SDS011;38405;53.212;5.660;2023-06-14T00:27:21;6.55;;;2.17;;
52494;SDS011;38405;53.212;5.660;2023-06-14T00:29:48;2.75;;;2.10;;
52494;SDS011;38405;53.212;5.660;2023-06-14T00:32:14;3.75;;;2.20;;
52494;SDS011;38405;53.212;5.660;2023-06-14T00:34:40;5.95;;;2.50;;
52494;SDS011;38405;53.212;5.660;2023-06-14T00:37:05;4.72;;;2.10;;
52494;SDS011;38405;53.212;5.660;2023-06-14T00:39:31;5.80;;;2.50;;
52494;SDS011;38405;53.212;5.660;2023-06-14T00:41:57;4.82;;;1.90;;
52494;SDS011;38405;53.212;5.660;2023-06-14T00:44:24;5.20;;;2.00;;
52494;SDS011;38405;53.212;5.660;2023-06-14T00:46:50;5.50;;;1.92;;
52494;SDS011;38405;53.212;5.660;2023-06-14T00:49:16;6.72;;;2.40;;
52494;SDS011;38405;53.212;5.660;2023-06-14T00:51:44;5.07;;;2.28;;
52494;SDS011;38405;53.212;5.660;2023-06-14T00:54:10;3.03;;;2.05;;
52494;SDS011;38405;53.212;5.660;2023-06-14T00:56:36;5.78;;;1.73;;
52494;SDS011;38405;53.212;5.660;2023-06-14T00:59:02;3.55;;;2.40;;
52494;SDS011;38405;53.212;5.660;2023-06-14T01:01:29;4.78;;;2.10;;
52494;SDS011;38405;53.212;5.660;2023-06-14T01:03:58;5.13;;;1.92;;
52494;SDS011;38405;53.212;5.660;2023-06-14T01:12:02;6.72;;;2.30;;
52494;SDS011;38405;53.212;5.660;2023-06-14T01:14:43;6.95;;;2.63;;
52494;SDS011;38405;53.212;5.660;2023-06-14T01:17:10;4.55;;;2.13;;
52494;SDS011;38405;53.212;5.660;2023-06-14T01:19:42;4.93;;;2.55;;
52494;SDS011;38405;53.212;5.660;2023-06-14T01:22:09;3.50;;;2.20;;
52494;SDS011;38405;53.212;5.660;2023-06-14T01:24:35;5.30;;;2.08;;
52494;SDS011;38405;53.212;5.660;2023-06-14T01:27:01;4.65;;;2.35;;
52494;SDS011;38405;53.212;5.660;2023-06-14T01:29:28;5.45;;;2.30;;
52494;SDS011;38405;53.212;5.660;2023-06-14T01:31:58;4.68;;;2.17;;
52494;SDS011;38405;53.212;5.660;2023-06-14T01:34:25;4.50;;;2.15;;
52494;SDS011;38405;53.212;5.660;2023-06-14T01:36:51;3.88;;;2.17;;
52494;SDS011;38405;53.212;5.660;2023-06-14T01:39:19;3.45;;;2.05;;
52494;SDS011;38405;53.212;5.660;2023-06-14T01:41:52;5.93;;;2.15;;
52494;SDS011;38405;53.212;5.660;2023-06-14T01:44:18;4.30;;;2.10;;
52494;SDS011;38405;53.212;5.660;2023-06-14T01:46:45;3.38;;;2.08;;
52494;SDS011;38405;53.212;5.660;2023-06-14T01:49:11;2.50;;;1.70;;
52494;SDS011;38405;53.212;5.660;2023-06-14T01:51:36;5.97;;;2.53;;
52494;SDS011;38405;53.212;5.660;2023-06-14T01:54:02;4.78;;;2.35;;
52494;SDS011;38405;53.212;5.660;2023-06-14T01:56:28;3.35;;;1.95;;
52494;SDS011;38405;53.212;5.660;2023-06-14T01:58:54;3.83;;;2.00;;
52494;SDS011;38405;53.212;5.660;2023-06-14T02:01:19;3.20;;;2.08;;
52494;SDS011;38405;53.212;5.660;2023-06-14T02:03:48;6.82;;;2.08;;
52494;SDS011;38405;53.212;5.660;2023-06-14T02:06:16;4.25;;;2.10;;
52494;SDS011;38405;53.212;5.660;2023-06-14T02:08:42;2.90;;;2.28;;
52494;SDS011;38405;53.212;5.660;2023-06-14T02:11:07;5.13;;;2.08;;
52494;SDS011;38405;53.212;5.660;2023-06-14T02:13:33;2.47;;;1.83;;
52494;SDS011;38405;53.212;5.660;2023-06-14T02:15:59;3.97;;;2.33;;
52494;SDS011;38405;53.212;5.660;2023-06-14T02:18:25;2.30;;;1.58;;
52494;SDS011;38405;53.212;5.660;2023-06-14T02:20:52;5.20;;;2.00;;
52494;SDS011;38405;53.212;5.660;2023-06-14T02:23:18;6.60;;;2.40;;
52494;SDS011;38405;53.212;5.660;2023-06-14T02:25:48;2.90;;;1.98;;
52494;SDS011;38405;53.212;5.660;2023-06-14T02:28:14;3.08;;;2.00;;
52494;SDS011;38405;53.212;5.660;2023-06-14T02:30:40;4.18;;;2.05;;
52494;SDS011;38405;53.212;5.660;2023-06-14T02:33:10;6.53;;;2.00;;
52494;SDS011;38405;53.212;5.660;2023-06-14T02:35:38;3.45;;;1.92;;
52494;SDS011;38405;53.212;5.660;2023-06-14T02:38:03;6.10;;;2.08;;
52494;SDS011;38405;53.212;5.660;2023-06-14T02:40:29;4.72;;;2.10;;
52494;SDS011;38405;53.212;5.660;2023-06-14T02:42:55;2.45;;;2.25;;
52494;SDS011;38405;53.212;5.660;2023-06-14T02:45:20;2.45;;;1.92;;
52494;SDS011;38405;53.212;5.660;2023-06-14T02:47:46;3.03;;;1.80;;
52494;SDS011;38405;53.212;5.660;2023-06-14T02:50:12;4.85;;;2.10;;
52494;SDS011;38405;53.212;5.660;2023-06-14T02:52:37;2.85;;;2.08;;
52494;SDS011;38405;53.212;5.660;2023-06-14T02:55:04;4.45;;;2.15;;
52494;SDS011;38405;53.212;5.660;2023-06-14T02:57:31;2.20;;;2.00;;
52494;SDS011;38405;53.212;5.660;2023-06-14T02:59:56;2.15;;;1.95;;
52494;SDS011;38405;53.212;5.660;2023-06-14T03:02:22;3.20;;;2.35;;
52494;SDS011;38405;53.212;5.660;2023-06-14T03:04:48;3.53;;;2.33;;
52494;SDS011;38405;53.212;5.660;2023-06-14T03:07:13;3.47;;;1.98;;
52494;SDS011;38405;53.212;5.660;2023-06-14T03:09:44;3.38;;;2.33;;
52494;SDS011;38405;53.212;5.660;2023-06-14T03:12:10;4.75;;;2.30;;
52494;SDS011;38405;53.212;5.660;2023-06-14T03:14:37;7.57;;;2.15;;
52494;SDS011;38405;53.212;5.660;2023-06-14T03:17:03;6.30;;;2.38;;
52494;SDS011;38405;53.212;5.660;2023-06-14T03:19:29;2.63;;;2.00;;
52494;SDS011;38405;53.212;5.660;2023-06-14T03:21:55;2.20;;;2.00;;
52494;SDS011;38405;53.212;5.660;2023-06-14T03:24:24;4.75;;;2.25;;
52494;SDS011;38405;53.212;5.660;2023-06-14T03:26:52;3.67;;;2.30;;
52494;SDS011;38405;53.212;5.660;2023-06-14T03:29:19;5.75;;;2.90;;
52494;SDS011;38405;53.212;5.660;2023-06-14T03:31:58;4.80;;;1.98;;
52494;SDS011;38405;53.212;5.660;2023-06-14T03:34:30;4.15;;;2.00;;
52494;SDS011;38405;53.212;5.660;2023-06-14T03:36:55;7.75;;;2.17;;
52494;SDS011;38405;53.212;5.660;2023-06-14T03:39:21;4.18;;;2.50;;
52494;SDS011;38405;53.212;5.660;2023-06-14T03:41:47;5.20;;;2.13;;
52494;SDS011;38405;53.212;5.660;2023-06-14T03:44:17;5.50;;;2.35;;
52494;SDS011;38405;53.212;5.660;2023-06-14T03:46:45;4.70;;;2.22;;
52494;SDS011;38405;53.212;5.660;2023-06-14T03:49:11;4.13;;;2.42;;
52494;SDS011;38405;53.212;5.660;2023-06-14T03:51:37;6.25;;;2.40;;
52494;SDS011;38405;53.212;5.660;2023-06-14T03:54:04;4.03;;;2.70;;
52494;SDS011;38405;53.212;5.660;2023-06-14T03:56:31;6.55;;;2.17;;
52494;SDS011;38405;53.212;5.660;2023-06-14T03:58:57;2.83;;;2.03;;
52494;SDS011;38405;53.212;5.660;2023-06-14T04:01:23;3.30;;;2.30;;
52494;SDS011;38405;53.212;5.660;2023-06-14T04:03:54;7.07;;;2.60;;
52494;SDS011;38405;53.212;5.660;2023-06-14T04:06:23;2.80;;;2.33;;
52494;SDS011;38405;53.212;5.660;2023-06-14T04:08:56;4.90;;;2.53;;
52494;SDS011;38405;53.212;5.660;2023-06-14T04:11:22;4.28;;;2.25;;
52494;SDS011;38405;53.212;5.660;2023-06-14T04:13:50;4.30;;;2.80;;
52494;SDS011;38405;53.212;5.660;2023-06-14T04:16:18;4.95;;;2.45;;
52494;SDS011;38405;53.212;5.660;2023-06-14T04:18:44;6.68;;;2.47;;
52494;SDS011;38405;53.212;5.660;2023-06-14T04:21:11;7.07;;;2.85;;
52494;SDS011;38405;53.212;5.660;2023-06-14T04:23:37;2.75;;;2.33;;
52494;SDS011;38405;53.212;5.660;2023-06-14T04:26:06;2.72;;;2.10;;
52494;SDS011;38405;53.212;5.660;2023-06-14T04:28:31;4.47;;;2.35;;
52494;SDS011;38405;53.212;5.660;2023-06-14T04:30:59;4.10;;;2.65;;
52494;SDS011;38405;53.212;5.660;2023-06-14T04:33:29;7.47;;;2.47;;
52494;SDS011;38405;53.212;5.660;2023-06-14T04:35:56;2.47;;;2.10;;
52494;SDS011;38405;53.212;5.660;2023-06-14T04:38:22;4.35;;;2.22;;
52494;SDS011;38405;53.212;5.660;2023-06-14T04:40:50;5.15;;;2.63;;
52494;SDS011;38405;53.212;5.660;2023-06-14T04:43:18;3.40;;;2.50;;
52494;SDS011;38405;53.212;5.660;2023-06-14T04:45:53;3.22;;;2.55;;
52494;SDS011;38405;53.212;5.660;2023-06-14T04:48:21;6.57;;;2.40;;
52494;SDS011;38405;53.212;5.660;2023-06-14T04:50:47;4.57;;;2.60;;
52494;SDS011;38405;53.212;5.660;2023-06-14T04:53:13;3.38;;;2.35;;
52494;SDS011;38405;53.212;5.660;2023-06-14T04:55:39;4.78;;;2.58;;
52494;SDS011;38405;53.212;5.660;2023-06-14T04:58:04;5.57;;;2.50;;
52494;SDS011;38405;53.212;5.660;2023-06-14T05:00:33;3.20;;;2.03;;
52494;SDS011;38405;53.212;5.660;2023-06-14T05:02:59;6.85;;;2.80;;
52494;SDS011;38405;53.212;5.660;2023-06-14T05:05:27;9.32;;;2.40;;
52494;SDS011;38405;53.212;5.660;2023-06-14T05:07:53;3.25;;;2.42;;
52494;SDS011;38405;53.212;5.660;2023-06-14T05:10:19;6.15;;;2.65;;
52494;SDS011;38405;53.212;5.660;2023-06-14T05:12:44;4.80;;;2.53;;
52494;SDS011;38405;53.212;5.660;2023-06-14T05:15:10;3.60;;;2.67;;
52494;SDS011;38405;53.212;5.660;2023-06-14T05:17:36;4.68;;;2.40;;
52494;SDS011;38405;53.212;5.660;2023-06-14T05:20:02;4.10;;;2.60;;
52494;SDS011;38405;53.212;5.660;2023-06-14T05:22:29;4.32;;;2.50;;
52494;SDS011;38405;53.212;5.660;2023-06-14T05:24:55;9.23;;;3.00;;
52494;SDS011;38405;53.212;5.660;2023-06-14T05:27:20;2.88;;;2.35;;
52494;SDS011;38405;53.212;5.660;2023-06-14T05:29:46;4.57;;;2.50;;
52494;SDS011;38405;53.212;5.660;2023-06-14T05:32:12;3.63;;;2.40;;
52494;SDS011;38405;53.212;5.660;2023-06-14T05:34:37;5.45;;;2.70;;
52494;SDS011;38405;53.212;5.660;2023-06-14T05:37:03;3.80;;;2.58;;
52494;SDS011;38405;53.212;5.660;2023-06-14T05:39:29;6.22;;;2.90;;
52494;SDS011;38405;53.212;5.660;2023-06-14T05:41:55;4.35;;;2.60;;
52494;SDS011;38405;53.212;5.660;2023-06-14T05:44:20;4.82;;;2.92;;
52494;SDS011;38405;53.212;5.660;2023-06-14T05:46:46;9.02;;;2.80;;
52494;SDS011;38405;53.212;5.660;2023-06-14T05:49:11;7.25;;;3.90;;
52494;SDS011;38405;53.212;5.660;2023-06-14T05:51:37;8.95;;;2.67;;
52494;SDS011;38405;53.212;5.660;2023-06-14T05:54:03;5.57;;;2.88;;
52494;SDS011;38405;53.212;5.660;2023-06-14T05:56:30;4.90;;;2.80;;
52494;SDS011;38405;53.212;5.660;2023-06-14T05:58:55;6.70;;;2.80;;
52494;SDS011;38405;53.212;5.660;2023-06-14T06:01:21;8.00;;;3.20;;
52494;SDS011;38405;53.212;5.660;2023-06-14T06:03:46;4.10;;;2.50;;
52494;SDS011;38405;53.212;5.660;2023-06-14T06:06:12;8.75;;;2.80;;
52494;SDS011;38405;53.212;5.660;2023-06-14T06:08:39;9.23;;;3.20;;
52494;SDS011;38405;53.212;5.660;2023-06-14T06:11:05;5.85;;;2.22;;
52494;SDS011;38405;53.212;5.660;2023-06-14T06:13:31;4.43;;;2.83;;
52494;SDS011;38405;53.212;5.660;2023-06-14T06:15:57;3.75;;;2.55;;
52494;SDS011;38405;53.212;5.660;2023-06-14T06:18:22;5.53;;;2.50;;
52494;SDS011;38405;53.212;5.660;2023-06-14T06:20:51;6.72;;;2.83;;
52494;SDS011;38405;53.212;5.660;2023-06-14T06:23:17;9.10;;;2.78;;
52494;SDS011;38405;53.212;5.660;2023-06-14T06:25:42;3.97;;;2.67;;
52494;SDS011;38405;53.212;5.660;2023-06-14T06:28:08;3.05;;;2.67;;
52494;SDS011;38405;53.212;5.660;2023-06-14T06:30:34;5.50;;;2.80;;
52494;SDS011;38405;53.212;5.660;2023-06-14T06:33:01;7.05;;;2.55;;
52494;SDS011;38405;53.212;5.660;2023-06-14T06:35:27;7.55;;;2.80;;
52494;SDS011;38405;53.212;5.660;2023-06-14T06:37:55;4.78;;;2.58;;
52494;SDS011;38405;53.212;5.660;2023-06-14T06:40:24;2.75;;;2.28;;
52494;SDS011;38405;53.212;5.660;2023-06-14T06:42:50;3.97;;;2.30;;
52494;SDS011;38405;53.212;5.660;2023-06-14T06:45:15;5.15;;;2.42;;
52494;SDS011;38405;53.212;5.660;2023-06-14T06:47:44;3.67;;;2.10;;
52494;SDS011;38405;53.212;5.660;2023-06-14T06:50:09;6.13;;;2.08;;
52494;SDS011;38405;53.212;5.660;2023-06-14T06:52:35;2.20;;;1.70;;
52494;SDS011;38405;53.212;5.660;2023-06-14T06:55:01;3.38;;;2.20;;
52494;SDS011;38405;53.212;5.660;2023-06-14T06:57:27;7.72;;;2.05;;
52494;SDS011;38405;53.212;5.660;2023-06-14T06:59:54;6.50;;;2.03;;
52494;SDS011;38405;53.212;5.660;2023-06-14T07:02:20;4.15;;;1.90;;
52494;SDS011;38405;53.212;5.660;2023-06-14T07:04:45;5.20;;;1.92;;
52494;SDS011;38405;53.212;5.660;2023-06-14T07:07:13;2.38;;;1.65;;
52494;SDS011;38405;53.212;5.660;2023-06-14T07:09:38;6.80;;;2.05;;
52494;SDS011;38405;53.212;5.660;2023-06-14T07:12:05;5.65;;;1.80;;
52494;SDS011;38405;53.212;5.660;2023-06-14T07:14:31;5.82;;;2.00;;
52494;SDS011;38405;53.212;5.660;2023-06-14T07:16:57;6.28;;;1.80;;
52494;SDS011;38405;53.212;5.660;2023-06-14T07:19:23;2.50;;;1.77;;
52494;SDS011;38405;53.212;5.660;2023-06-14T07:21:49;2.53;;;2.08;;
52494;SDS011;38405;53.212;5.660;2023-06-14T07:24:14;3.88;;;1.77;;
52494;SDS011;38405;53.212;5.660;2023-06-14T07:26:43;4.50;;;1.98;;
52494;SDS011;38405;53.212;5.660;2023-06-14T07:29:08;2.75;;;1.52;;
52494;SDS011;38405;53.212;5.660;2023-06-14T07:31:34;5.40;;;1.85;;
52494;SDS011;38405;53.212;5.660;2023-06-14T07:33:59;7.20;;;1.70;;
52494;SDS011;38405;53.212;5.660;2023-06-14T07:36:25;3.50;;;1.77;;
52494;SDS011;38405;53.212;5.660;2023-06-14T07:38:51;4.35;;;2.08;;
52494;SDS011;38405;53.212;5.660;2023-06-14T07:41:16;3.08;;;1.63;;
52494;SDS011;38405;53.212;5.660;2023-06-14T07:43:42;6.07;;;1.80;;
52494;SDS011;38405;53.212;5.660;2023-06-14T07:46:11;4.07;;;1.60;;
52494;SDS011;38405;53.212;5.660;2023-06-14T07:48:36;3.83;;;1.60;;
52494;SDS011;38405;53.212;5.660;2023-06-14T07:51:02;1.95;;;1.75;;
52494;SDS011;38405;53.212;5.660;2023-06-14T07:53:31;3.85;;;1.80;;
52494;SDS011;38405;53.212;5.660;2023-06-14T07:55:57;2.83;;;1.70;;
52494;SDS011;38405;53.212;5.660;2023-06-14T07:58:23;2.20;;;1.48;;
52494;SDS011;38405;53.212;5.660;2023-06-14T08:00:49;2.92;;;1.50;;
52494;SDS011;38405;53.212;5.660;2023-06-14T08:03:14;4.80;;;1.63;;
52494;SDS011;38405;53.212;5.660;2023-06-14T08:05:40;4.22;;;1.63;;
52494;SDS011;38405;53.212;5.660;2023-06-14T08:08:06;4.25;;;1.52;;
52494;SDS011;38405;53.212;5.660;2023-06-14T08:10:33;4.68;;;1.50;;
52494;SDS011;38405;53.212;5.660;2023-06-14T08:12:59;3.60;;;1.45;;
52494;SDS011;38405;53.212;5.660;2023-06-14T08:15:27;3.08;;;1.50;;
52494;SDS011;38405;53.212;5.660;2023-06-14T08:17:53;2.97;;;1.58;;
52494;SDS011;38405;53.212;5.660;2023-06-14T08:20:19;4.47;;;1.80;;
52494;SDS011;38405;53.212;5.660;2023-06-14T08:22:44;4.80;;;1.42;;
52494;SDS011;38405;53.212;5.660;2023-06-14T08:25:13;4.57;;;1.60;;
52494;SDS011;38405;53.212;5.660;2023-06-14T08:27:38;2.72;;;1.33;;
52494;SDS011;38405;53.212;5.660;2023-06-14T08:30:05;3.88;;;1.45;;
52494;SDS011;38405;53.212;5.660;2023-06-14T08:32:32;2.30;;;1.40;;
52494;SDS011;38405;53.212;5.660;2023-06-14T08:34:58;1.50;;;1.40;;
52494;SDS011;38405;53.212;5.660;2023-06-14T08:37:25;3.47;;;1.58;;
52494;SDS011;38405;53.212;5.660;2023-06-14T08:39:51;14.35;;;1.70;;
52494;SDS011;38405;53.212;5.660;2023-06-14T08:42:17;4.78;;;1.88;;
52494;SDS011;38405;53.212;5.660;2023-06-14T08:44:46;6.80;;;1.80;;
52494;SDS011;38405;53.212;5.660;2023-06-14T08:47:12;4.07;;;1.90;;
52494;SDS011;38405;53.212;5.660;2023-06-14T08:49:39;1.75;;;1.60;;
52494;SDS011;38405;53.212;5.660;2023-06-14T08:52:10;2.67;;;1.40;;
52494;SDS011;38405;53.212;5.660;2023-06-14T08:54:37;6.18;;;1.70;;
52494;SDS011;38405;53.212;5.660;2023-06-14T08:57:09;3.35;;;1.50;;
52494;SDS011;38405;53.212;5.660;2023-06-14T08:59:38;5.38;;;1.70;;
52494;SDS011;38405;53.212;5.660;2023-06-14T09:02:11;6.30;;;2.20;;
52494;SDS011;38405;53.212;5.660;2023-06-14T09:04:39;6.03;;;1.65;;
52494;SDS011;38405;53.212;5.660;2023-06-14T09:07:06;3.45;;;1.92;;
52494;SDS011;38405;53.212;5.660;2023-06-14T09:09:32;3.17;;;1.77;;
52494;SDS011;38405;53.212;5.660;2023-06-14T09:12:00;1.90;;;1.50;;
52494;SDS011;38405;53.212;5.660;2023-06-14T09:14:27;3.15;;;1.75;;
52494;SDS011;38405;53.212;5.660;2023-06-14T09:16:54;5.70;;;1.80;;
52494;SDS011;38405;53.212;5.660;2023-06-14T09:19:25;2.55;;;1.60;;
52494;SDS011;38405;53.212;5.660;2023-06-14T09:21:54;3.08;;;1.83;;
52494;SDS011;38405;53.212;5.660;2023-06-14T09:24:26;4.73;;;1.70;;
52494;SDS011;38405;53.212;5.660;2023-06-14T09:26:52;4.68;;;1.67;;
52494;SDS011;38405;53.212;5.660;2023-06-14T09:29:19;2.85;;;1.50;;
52494;SDS011;38405;53.212;5.660;2023-06-14T09:31:46;4.15;;;1.67;;
52494;SDS011;38405;53.212;5.660;2023-06-14T09:34:12;2.65;;;1.70;;
52494;SDS011;38405;53.212;5.660;2023-06-14T09:36:37;3.38;;;1.92;;
52494;SDS011;38405;53.212;5.660;2023-06-14T09:39:05;4.65;;;1.70;;
52494;SDS011;38405;53.212;5.660;2023-06-14T09:41:33;4.90;;;1.80;;
52494;SDS011;38405;53.212;5.660;2023-06-14T09:44:00;7.43;;;1.80;;
52494;SDS011;38405;53.212;5.660;2023-06-14T09:46:28;5.90;;;1.65;;
52494;SDS011;38405;53.212;5.660;2023-06-14T09:48:58;6.43;;;1.63;;
52494;SDS011;38405;53.212;5.660;2023-06-14T09:51:25;2.53;;;1.48;;
52494;SDS011;38405;53.212;5.660;2023-06-14T09:53:52;2.17;;;1.65;;
52494;SDS011;38405;53.212;5.660;2023-06-14T09:56:27;3.90;;;1.52;;
52494;SDS011;38405;53.212;5.660;2023-06-14T09:58:57;2.25;;;1.58;;
52494;SDS011;38405;53.212;5.660;2023-06-14T10:01:30;4.60;;;1.88;;
52494;SDS011;38405;53.212;5.660;2023-06-14T10:04:01;8.50;;;1.90;;
52494;SDS011;38405;53.212;5.660;2023-06-14T10:06:32;2.38;;;1.65;;
52494;SDS011;38405;53.212;5.660;2023-06-14T10:09:09;7.60;;;1.70;;
52494;SDS011;38405;53.212;5.660;2023-06-14T10:11:35;2.58;;;1.55;;
52494;SDS011;38405;53.212;5.660;2023-06-14T10:14:02;2.08;;;1.40;;
52494;SDS011;38405;53.212;5.660;2023-06-14T10:21:57;3.60;;;1.70;;
52494;SDS011;38405;53.212;5.660;2023-06-14T10:24:43;2.22;;;1.50;;
52494;SDS011;38405;53.212;5.660;2023-06-14T10:27:10;3.40;;;1.88;;
52494;SDS011;38405;53.212;5.660;2023-06-14T10:32:20;6.65;;;2.08;;
52494;SDS011;38405;53.212;5.660;2023-06-14T10:34:53;4.57;;;1.38;;
52494;SDS011;38405;53.212;5.660;2023-06-14T10:37:23;2.78;;;1.75;;
52494;SDS011;38405;53.212;5.660;2023-06-14T10:39:49;2.40;;;1.50;;
52494;SDS011;38405;53.212;5.660;2023-06-14T10:42:18;5.07;;;1.55;;
52494;SDS011;38405;53.212;5.660;2023-06-14T10:47:32;5.07;;;1.60;;
52494;SDS011;38405;53.212;5.660;2023-06-14T10:50:04;5.13;;;1.52;;
52494;SDS011;38405;53.212;5.660;2023-06-14T10:52:37;3.85;;;1.70;;
52494;SDS011;38405;53.212;5.660;2023-06-14T10:57:46;3.53;;;1.50;;
52494;SDS011;38405;53.212;5.660;2023-06-14T11:00:20;2.97;;;1.70;;
52494;SDS011;38405;53.212;5.660;2023-06-14T11:05:24;4.85;;;1.75;;
52494;SDS011;38405;53.212;5.660;2023-06-14T11:11:00;3.30;;;1.55;;
52494;SDS011;38405;53.212;5.660;2023-06-14T11:13:30;5.00;;;1.60;;
52494;SDS011;38405;53.212;5.660;2023-06-14T11:15:57;2.05;;;1.65;;
52494;SDS011;38405;53.212;5.660;2023-06-14T11:18:23;3.08;;;1.85;;
52494;SDS011;38405;53.212;5.660;2023-06-14T11:20:50;2.13;;;1.65;;
52494;SDS011;38405;53.212;5.660;2023-06-14T11:23:18;6.60;;;1.85;;
52494;SDS011;38405;53.212;5.660;2023-06-14T11:25:49;8.25;;;1.80;;
52494;SDS011;38405;53.212;5.660;2023-06-14T11:28:16;2.17;;;1.60;;
52494;SDS011;38405;53.212;5.660;2023-06-14T11:30:42;3.60;;;1.70;;
52494;SDS011;38405;53.212;5.660;2023-06-14T11:33:09;1.80;;;1.70;;
52494;SDS011;38405;53.212;5.660;2023-06-14T11:35:43;1.65;;;1.55;;
52494;SDS011;38405;53.212;5.660;2023-06-14T11:38:10;1.92;;;1.67;;
52494;SDS011;38405;53.212;5.660;2023-06-14T11:40:37;1.77;;;1.60;;
52494;SDS011;38405;53.212;5.660;2023-06-14T11:43:06;11.50;;;1.80;;
52494;SDS011;38405;53.212;5.660;2023-06-14T11:45:32;5.70;;;2.00;;
52494;SDS011;38405;53.212;5.660;2023-06-14T11:47:58;2.05;;;1.58;;
52494;SDS011;38405;53.212;5.660;2023-06-14T11:50:27;4.13;;;1.50;;
52494;SDS011;38405;53.212;5.660;2023-06-14T11:52:54;7.38;;;1.90;;
52494;SDS011;38405;53.212;5.660;2023-06-14T11:55:21;7.03;;;1.80;;
52494;SDS011;38405;53.212;5.660;2023-06-14T11:57:47;4.75;;;1.75;;
52494;SDS011;38405;53.212;5.660;2023-06-14T12:00:13;4.35;;;2.17;;
52494;SDS011;38405;53.212;5.660;2023-06-14T12:02:40;5.88;;;1.63;;
52494;SDS011;38405;53.212;5.660;2023-06-14T12:05:07;4.30;;;1.63;;
52494;SDS011;38405;53.212;5.660;2023-06-14T12:07:36;2.10;;;1.77;;
52494;SDS011;38405;53.212;5.660;2023-06-14T12:12:35;2.03;;;1.48;;
52494;SDS011;38405;53.212;5.660;2023-06-14T12:15:09;3.45;;;1.60;;
52494;SDS011;38405;53.212;5.660;2023-06-14T12:17:38;2.97;;;1.50;;
52494;SDS011;38405;53.212;5.660;2023-06-14T12:20:10;10.23;;;2.42;;
52494;SDS011;38405;53.212;5.660;2023-06-14T12:22:59;3.42;;;1.70;;
52494;SDS011;38405;53.212;5.660;2023-06-14T12:25:26;5.57;;;1.60;;
52494;SDS011;38405;53.212;5.660;2023-06-14T12:27:56;5.57;;;1.70;;
52494;SDS011;38405;53.212;5.660;2023-06-14T12:30:22;4.40;;;2.03;;
52494;SDS011;38405;53.212;5.660;2023-06-14T12:32:48;3.92;;;1.58;;
52494;SDS011;38405;53.212;5.660;2023-06-14T12:35:17;4.32;;;1.50;;
52494;SDS011;38405;53.212;5.660;2023-06-14T12:37:44;5.85;;;1.90;;
52494;SDS011;38405;53.212;5.660;2023-06-14T12:40:11;1.88;;;1.60;;
52494;SDS011;38405;53.212;5.660;2023-06-14T12:42:40;1.70;;;1.52;;
52494;SDS011;38405;53.212;5.660;2023-06-14T12:45:08;3.72;;;1.80;;
52494;SDS011;38405;53.212;5.660;2023-06-14T12:47:34;4.25;;;1.70;;
52494;SDS011;38405;53.212;5.660;2023-06-14T12:50:02;1.92;;;1.73;;
52494;SDS011;38405;53.212;5.660;2023-06-14T12:52:31;6.53;;;1.80;;
52494;SDS011;38405;53.212;5.660;2023-06-14T12:55:01;3.90;;;2.17;;
52494;SDS011;38405;53.212;5.660;2023-06-14T12:57:28;5.72;;;2.17;;
52494;SDS011;38405;53.212;5.660;2023-06-14T12:59:53;14.93;;;2.83;;
52494;SDS011;38405;53.212;5.660;2023-06-14T13:02:20;5.25;;;2.33;;
52494;SDS011;38405;53.212;5.660;2023-06-14T13:04:51;8.80;;;2.33;;
52494;SDS011;38405;53.212;5.660;2023-06-14T13:07:17;5.18;;;2.50;;
52494;SDS011;38405;53.212;5.660;2023-06-14T13:09:43;5.88;;;2.33;;
52494;SDS011;38405;53.212;5.660;2023-06-14T13:12:10;6.80;;;2.20;;
52494;SDS011;38405;53.212;5.660;2023-06-14T13:14:39;4.85;;;2.42;;
52494;SDS011;38405;53.212;5.660;2023-06-14T13:17:07;7.40;;;2.72;;
52494;SDS011;38405;53.212;5.660;2023-06-14T13:19:33;6.60;;;2.90;;
52494;SDS011;38405;53.212;5.660;2023-06-14T13:22:00;4.15;;;2.55;;
52494;SDS011;38405;53.212;5.660;2023-06-14T13:24:25;4.00;;;2.33;;
52494;SDS011;38405;53.212;5.660;2023-06-14T13:26:52;11.63;;;2.60;;
52494;SDS011;38405;53.212;5.660;2023-06-14T13:29:18;7.97;;;2.65;;
52494;SDS011;38405;53.212;5.660;2023-06-14T13:31:43;6.18;;;3.15;;
52494;SDS011;38405;53.212;5.660;2023-06-14T13:34:10;3.80;;;2.53;;
52494;SDS011;38405;53.212;5.660;2023-06-14T13:36:35;3.92;;;2.35;;
52494;SDS011;38405;53.212;5.660;2023-06-14T13:39:01;5.18;;;2.45;;
52494;SDS011;38405;53.212;5.660;2023-06-14T13:41:27;5.93;;;2.40;;
52494;SDS011;38405;53.212;5.660;2023-06-14T13:43:58;8.13;;;2.85;;
52494;SDS011;38405;53.212;5.660;2023-06-14T13:46:24;8.75;;;2.65;;
52494;SDS011;38405;53.212;5.660;2023-06-14T13:48:52;7.05;;;2.60;;
52494;SDS011;38405;53.212;5.660;2023-06-14T13:51:17;6.45;;;2.50;;
52494;SDS011;38405;53.212;5.660;2023-06-14T13:53:50;4.10;;;2.50;;
52494;SDS011;38405;53.212;5.660;2023-06-14T13:56:32;7.78;;;2.60;;
52494;SDS011;38405;53.212;5.660;2023-06-14T13:58:58;8.15;;;2.65;;
52494;SDS011;38405;53.212;5.660;2023-06-14T14:01:28;11.27;;;2.63;;
52494;SDS011;38405;53.212;5.660;2023-06-14T14:03:54;5.15;;;2.28;;
52494;SDS011;38405;53.212;5.660;2023-06-14T14:06:19;3.58;;;2.25;;
52494;SDS011;38405;53.212;5.660;2023-06-14T14:08:45;7.80;;;2.50;;
52494;SDS011;38405;53.212;5.660;2023-06-14T14:11:11;5.45;;;2.30;;
52494;SDS011;38405;53.212;5.660;2023-06-14T14:13:40;5.45;;;2.10;;
52494;SDS011;38405;53.212;5.660;2023-06-14T14:16:07;11.43;;;2.97;;
52494;SDS011;38405;53.212;5.660;2023-06-14T14:18:35;11.52;;;2.70;;
52494;SDS011;38405;53.212;5.660;2023-06-14T14:21:02;4.72;;;2.30;;
52494;SDS011;38405;53.212;5.660;2023-06-14T14:23:28;6.57;;;2.45;;
52494;SDS011;38405;53.212;5.660;2023-06-14T14:25:54;10.40;;;2.47;;
52494;SDS011;38405;53.212;5.660;2023-06-14T14:28:23;6.25;;;2.45;;
52494;SDS011;38405;53.212;5.660;2023-06-14T14:30:49;10.13;;;2.38;;
52494;SDS011;38405;53.212;5.660;2023-06-14T14:33:15;4.35;;;2.28;;
52494;SDS011;38405;53.212;5.660;2023-06-14T14:35:44;9.32;;;2.83;;
52494;SDS011;38405;53.212;5.660;2023-06-14T14:38:13;11.02;;;2.53;;
52494;SDS011;38405;53.212;5.660;2023-06-14T14:40:41;8.80;;;2.75;;
52494;SDS011;38405;53.212;5.660;2023-06-14T14:43:07;7.63;;;3.00;;
52494;SDS011;38405;53.212;5.660;2023-06-14T14:45:33;7.95;;;2.50;;
52494;SDS011;38405;53.212;5.660;2023-06-14T14:48:00;9.27;;;2.67;;
52494;SDS011;38405;53.212;5.660;2023-06-14T14:50:26;8.77;;;2.60;;
52494;SDS011;38405;53.212;5.660;2023-06-14T14:52:51;6.82;;;2.85;;
52494;SDS011;38405;53.212;5.660;2023-06-14T14:55:17;6.50;;;2.88;;
52494;SDS011;38405;53.212;5.660;2023-06-14T14:57:43;4.95;;;2.75;;
52494;SDS011;38405;53.212;5.660;2023-06-14T15:00:10;10.13;;;2.60;;
52494;SDS011;38405;53.212;5.660;2023-06-14T15:02:36;7.15;;;2.53;;
52494;SDS011;38405;53.212;5.660;2023-06-14T15:05:02;5.20;;;2.30;;
52494;SDS011;38405;53.212;5.660;2023-06-14T15:07:28;4.47;;;2.47;;
52494;SDS011;38405;53.212;5.660;2023-06-14T15:10:00;8.23;;;2.08;;
52494;SDS011;38405;53.212;5.660;2023-06-14T15:12:26;12.63;;;2.43;;
52494;SDS011;38405;53.212;5.660;2023-06-14T15:14:51;7.15;;;2.70;;